Flight Track Log - Related Links

Times and Time Zones

All times are in EDT time to prevent confusion due to time zone crossing. See the UAL1062 flight status page for this flight to view local times or setup timezone preferences in your user account.

Time Position Orientation Groundspeed Altitude Reporting Facility
EDT Latitude Longitude Course Direction KTS MPH feet Rate Location/Type
Thu 12:18:00 PM 41.6735 -88.1342 189° South  Level Estimated
Thu 12:19:00 PM 41.5708 -88.2096 189° South  Level Estimated
Thu 12:19:44 PM 41.7380 -87.9970 194° South 308 354 6,800  Level FlightAware ADS-B
Thu 12:20:00 PM 41.4679 -88.2848 194° South  Level Estimated
Thu 12:20:00 PM 41.7160 -87.9990 184° South 307 353 7,700  Level FlightAware ADS-B
Thu 12:20:45 PM 41.6360 -88.0070 184° South 312 359 10,800 3,303 Climbing FlightAware ADS-B
Thu 12:21:29 PM 41.5660 -88.0140 184° South 344 396 12,600 2,045 Climbing FlightAware ADS-B
Thu 12:22:13 PM 41.4930 -88.0210 184° South 386 444 13,800 2,143 Climbing FlightAware ADS-B
Thu 12:22:53 PM 41.4180 -88.0290 185° South 393 452 15,600 3,000 Climbing FlightAware ADS-B
Thu 12:23:29 PM 41.3600 -88.0460 192° South 382 440 17,600 2,741 Climbing FlightAware ADS-B
Thu 12:24:14 PM 41.2780 -88.0730 194° South 395 455 19,300 2,182 Climbing FlightAware ADS-B
Thu 12:24:57 PM 41.2010 -88.0970 193° South 408 470 20,800 2,049 Climbing FlightAware ADS-B
Thu 12:25:36 PM 41.1270 -88.1190 193° South 417 480 22,100 1,830 Climbing FlightAware ADS-B
Thu 12:27:18 PM 40.9290 -88.1750 192° South 438 504 25,100 1,817 Climbing FlightAware ADS-B
Thu 12:27:58 PM 40.8500 -88.1980 192° South 441 507 26,400 1,807 Climbing FlightAware ADS-B
Thu 12:28:41 PM 40.7630 -88.2220 192° South 449 517 27,600 1,465 Climbing FlightAware ADS-B
Thu 12:29:24 PM 40.6780 -88.2630 200° South 445 512 28,500 923 Climbing FlightAware ADS-B
Thu 12:33:27 PM 40.2430 -88.5730 209° Southwest 472 543 32,000 1,007 Climbing FlightAware ADS-B
Thu 12:34:28 PM 40.1010 -88.6720 208° Southwest 471 542 33,600 1,545 Climbing FlightAware ADS-B
Thu 12:35:08 PM 40.0210 -88.7290 209° Southwest 468 539 34,600 1,364 Climbing FlightAware ADS-B
Thu 12:36:18 PM 39.8910 -88.8190 208° Southwest 460 529 36,100 1,241 Climbing FlightAware ADS-B
Thu 12:37:04 PM 39.8040 -88.8800 208° Southwest 457 526 37,000 659 Climbing FlightAware ADS-B
Thu 12:37:40 PM 39.7380 -88.9260 208° Southwest 459 528 37,000  Level FlightAware ADS-B
Thu 12:38:28 PM 39.6470 -88.9900 208° Southwest 459 528 37,000  Level FlightAware ADS-B
Thu 12:39:23 PM 39.5450 -89.0600 208° Southwest 461 531 37,000  Level FlightAware ADS-B
Thu 12:40:06 PM 39.4630 -89.1170 208° Southwest 461 531 37,000  Level FlightAware ADS-B
Thu 12:40:54 PM 39.3740 -89.1780 208° Southwest 462 532 37,000  Level FlightAware ADS-B
Thu 12:41:43 PM 39.2960 -89.2320 208° Southwest 462 532 37,000 682 Level FlightAware ADS-B
Thu 12:42:22 PM 39.2070 -89.2920 208° Southwest 459 528 38,000 706 Climbing FlightAware ADS-B
Thu 12:43:08 PM 39.1200 -89.3520 208° Southwest 458 527 38,000  Level FlightAware ADS-B
Thu 12:43:49 PM 39.0480 -89.4010 208° Southwest 458 527 38,000  Level FlightAware ADS-B
Thu 12:44:32 PM 38.9620 -89.4590 208° Southwest 458 527 38,000  Level FlightAware ADS-B
Thu 12:45:05 PM 38.9020 -89.5000 208° Southwest 458 527 38,000  Level FlightAware ADS-B
Thu 12:45:50 PM 38.8170 -89.5570 208° Southwest 458 527 38,000  Level FlightAware ADS-B
Thu 12:46:30 PM 38.7430 -89.6070 208° Southwest 459 528 38,000  Level FlightAware ADS-B
Thu 12:47:18 PM 38.6620 -89.6600 207° Southwest 459 528 38,000  Level FlightAware ADS-B
Thu 12:48:02 PM 38.5660 -89.7250 208° Southwest 465 535 38,000  Level FlightAware ADS-B
Thu 12:48:41 PM 38.4940 -89.7730 208° Southwest 467 537 38,000  Level FlightAware ADS-B
Thu 12:49:20 PM 38.4280 -89.8170 208° Southwest 467 537 38,000  Level FlightAware ADS-B
Thu 12:50:06 PM 38.3520 -89.8660 207° Southwest 467 537 38,000  Level FlightAware ADS-B
Thu 12:50:49 PM 38.2490 -89.9370 208° Southwest 466 536 38,000  Level FlightAware ADS-B
Thu 12:51:28 PM 38.1730 -89.9870 207° Southwest 466 536 38,000  Level FlightAware ADS-B
Thu 12:52:11 PM 38.0900 -90.0410 207° Southwest 468 539 38,000  Level FlightAware ADS-B
Thu 12:52:54 PM 38.0110 -90.0940 208° Southwest 470 541 38,000  Level FlightAware ADS-B
Thu 12:53:52 PM 37.9040 -90.1630 207° Southwest 472 543 38,000  Level FlightAware ADS-B
Thu 12:54:28 PM 37.8440 -90.2020 207° Southwest 472 543 38,000  Level FlightAware ADS-B
Thu 12:55:15 PM 37.7670 -90.2520 207° Southwest 472 543 38,000  Level FlightAware ADS-B
Thu 12:55:51 PM 37.7070 -90.2900 207° Southwest 472 543 38,000  Level FlightAware ADS-B
Thu 12:56:38 PM 37.6290 -90.3400 207° Southwest 472 543 38,000  Level FlightAware ADS-B
Thu 12:57:36 PM 37.5330 -90.4020 207° Southwest 472 543 38,000  Level FlightAware ADS-B
Thu 12:58:15 PM 37.4690 -90.4430 207° Southwest 472 543 38,000  Level FlightAware ADS-B
Thu 12:59:13 PM 37.2780 -90.5700 208° Southwest 463 533 38,000  Level FlightAware ADS-B
Thu 12:59:57 PM 37.1950 -90.6240 207° Southwest 463 533 38,000  Level FlightAware ADS-B
Thu 01:03:29 PM 36.7900 -90.8820 207° Southwest 457 526 38,000  Level FlightAware ADS-B
Thu 01:04:11 PM 36.7100 -90.9320 207° Southwest 457 526 38,000  Level FlightAware ADS-B
Thu 01:04:49 PM 36.6410 -90.9760 207° Southwest 460 529 38,000  Level FlightAware ADS-B
Thu 01:05:59 PM 36.5070 -91.0600 207° Southwest 466 536 38,000  Level FlightAware ADS-B
Thu 01:07:09 PM 36.3720 -91.1450 207° Southwest 465 535 38,000  Level FlightAware ADS-B
Thu 01:07:49 PM 36.2940 -91.1940 207° Southwest 463 533 38,000  Level FlightAware ADS-B
Thu 01:08:37 PM 36.2020 -91.2510 207° Southwest 463 533 38,000  Level FlightAware ADS-B
Thu 01:09:34 PM 36.1130 -91.3060 207° Southwest 463 533 38,000  Level FlightAware ADS-B
Thu 01:10:07 PM 36.0320 -91.3570 207° Southwest 453 521 38,000  Level FlightAware ADS-B
Thu 01:10:57 PM 35.9370 -91.4150 206° Southwest 451 519 38,000  Level FlightAware ADS-B
Thu 01:12:21 PM 35.7820 -91.5110 207° Southwest 449 517 38,000  Level FlightAware ADS-B
Thu 01:13:01 PM 35.7090 -91.5560 207° Southwest 449 517 38,000  Level FlightAware ADS-B
Thu 01:13:59 PM 35.6100 -91.6160 206° Southwest 449 517 38,000  Level FlightAware ADS-B
Thu 01:15:33 PM 35.4430 -91.7180 206° Southwest 448 516 38,000  Level FlightAware ADS-B
Thu 01:16:17 PM 35.3510 -91.7750 207° Southwest 449 517 38,000  Level FlightAware ADS-B
Thu 01:17:01 PM 35.2700 -91.8230 206° Southwest 448 516 38,000  Level FlightAware ADS-B
Thu 01:17:39 PM 35.1910 -91.8720 207° Southwest 448 516 38,000  Level FlightAware ADS-B
Thu 01:18:31 PM 35.1010 -91.9260 206° Southwest 448 516 38,000  Level FlightAware ADS-B
Thu 01:19:18 PM 35.0270 -91.9700 206° Southwest 448 516 38,000  Level FlightAware ADS-B
Thu 01:19:55 PM 34.9680 -92.0050 206° Southwest 448 516 38,000  Level FlightAware ADS-B
Thu 01:20:42 PM 34.8930 -92.0490 206° Southwest 448 516 38,000  Level FlightAware ADS-B
Thu 01:21:19 PM 34.8350 -92.0840 206° Southwest 448 516 38,000  Level FlightAware ADS-B
Thu 01:22:05 PM 34.7620 -92.1280 206° Southwest 448 516 38,000  Level FlightAware ADS-B
Thu 01:22:53 PM 34.6860 -92.1730 206° Southwest 448 516 38,000  Level FlightAware ADS-B
Thu 01:23:32 PM 34.6240 -92.2090 206° Southwest 448 516 38,000  Level FlightAware ADS-B
Thu 01:24:06 PM 34.5700 -92.2410 206° Southwest 448 516 38,000  Level FlightAware ADS-B
Thu 01:24:54 PM 34.4940 -92.2860 206° Southwest 448 516 38,000  Level FlightAware ADS-B
Thu 01:25:32 PM 34.4340 -92.3220 206° Southwest 448 516 38,000  Level FlightAware ADS-B
Thu 01:25:54 PM 34.3990 -92.3420 205° Southwest 448 516 38,000  Level FlightAware ADS-B
Thu 01:26:33 PM 34.3380 -92.3790 207° Southwest 448 516 38,000  Level FlightAware ADS-B
Thu 01:27:22 PM 34.2600 -92.4250 206° Southwest 448 516 38,000  Level FlightAware ADS-B
Thu 01:27:58 PM 34.2030 -92.4580 206° Southwest 448 516 38,000  Level FlightAware ADS-B
Thu 01:29:07 PM 33.8411 -92.3372 206° Southwest 454 522 38,000  Level Fort Worth Center
Thu 01:30:07 PM 33.7294 -92.3586 189° South 443 510 38,000  Level Fort Worth Center
Thu 01:31:07 PM 33.6050 -92.3808 188° South 448 516 38,000  Level Fort Worth Center
Thu 01:32:07 PM 33.4767 -92.4031 188° South 455 524 38,000  Level Fort Worth Center
Thu 01:33:07 PM 33.3544 -92.4250 189° South 455 524 38,000  Level Fort Worth Center
Thu 01:34:07 PM 33.2300 -92.4469 188° South 460 529 38,000  Level Fort Worth Center
Thu 01:35:07 PM 33.1058 -92.4711 189° South 460 529 38,000  Level Fort Worth Center
Thu 01:36:07 PM 32.9814 -92.4931 188° South 460 529 38,000  Level Fort Worth Center
Thu 01:37:07 PM 32.8592 -92.5144 188° South 460 529 38,000  Level Fort Worth Center
Thu 01:38:07 PM 32.7408 -92.5358 189° South 449 517 38,000  Level Fort Worth Center
Thu 01:39:13 PM 32.5939 -92.5653 190° South 444 511 38,000 -147 Level Houston Center
Thu 01:44:54 PM 31.9227 -92.8126 190° South 457 526 37,000 -90 Descending FlightAware ADS-B
Thu 01:50:21 PM 31.3828 -93.3058 218° Southwest 451 519 37,000  Level FlightAware ADS-B
Thu 01:51:00 PM 31.3185 -93.3639 218° Southwest 452 520 37,000  Level FlightAware ADS-B
Thu 01:51:35 PM 31.2604 -93.4165 218° Southwest 453 521 37,000 -326 Level FlightAware ADS-B
Thu 01:52:32 PM 31.1658 -93.5016 218° Southwest 465 535 36,500 -1,021 Descending FlightAware ADS-B
Thu 01:53:09 PM 31.1020 -93.5589 218° Southwest 469 540 35,400 -2,418 Descending FlightAware ADS-B
Thu 01:53:39 PM 31.0497 -93.6062 218° Southwest 475 547 33,800 -3,246 Descending FlightAware ADS-B
Thu 01:54:10 PM 30.9954 -93.6551 218° Southwest 480 552 32,100 -3,273 Descending FlightAware ADS-B
Thu 01:54:45 PM 30.9343 -93.7097 217° Southwest 486 559 30,200 -3,043 Descending FlightAware ADS-B
Thu 01:55:19 PM 30.8727 -93.7646 217° Southwest 480 552 28,600 -2,769 Descending FlightAware ADS-B
Thu 01:55:50 PM 30.8194 -93.8124 218° Southwest 473 544 27,200 -2,656 Descending FlightAware ADS-B
Thu 01:56:20 PM 30.7675 -93.8588 218° Southwest 466 536 25,900 -2,557 Descending FlightAware ADS-B
Thu 01:56:51 PM 30.7141 -93.9064 217° Southwest 459 528 24,600 -2,476 Descending FlightAware ADS-B
Thu 01:57:23 PM 30.6608 -93.9538 217° Southwest 451 519 23,300 -2,531 Descending FlightAware ADS-B
Thu 01:57:55 PM 30.6083 -94.0005 217° Southwest 443 510 21,900 -2,438 Descending FlightAware ADS-B
Thu 01:58:27 PM 30.5569 -94.0460 217° Southwest 434 499 20,700 -2,348 Descending FlightAware ADS-B
Thu 01:59:27 PM 30.4621 -94.1296 217° Southwest 420 483 18,300 -2,374 Descending FlightAware ADS-B
Thu 01:59:58 PM 30.4159 -94.1704 217° Southwest 412 474 17,100 -2,362 Descending FlightAware ADS-B
Thu 02:01:34 PM 30.2730 -94.2963 217° Southwest 394 453 13,300 -2,250 Descending FlightAware ADS-B
Thu 02:02:14 PM 30.2173 -94.3453 218° Southwest 375 432 12,000 -1,787 Descending FlightAware ADS-B
Thu 02:02:21 PM 30.2085 -94.3556 225° Southwest 370 426 11,900 -545 Descending FlightAware ADS-B
Thu 02:02:25 PM 30.2046 -94.3616 233° Southwest 366 421 11,900  Level FlightAware ADS-B
Thu 02:02:30 PM 30.1998 -94.3709 239° Southwest 362 417 11,900 -750 Level FlightAware ADS-B
Thu 02:03:13 PM 30.1832 -94.4469 258° West 337 388 11,300 -1,200 Descending FlightAware ADS-B
Thu 02:03:40 PM 30.1746 -94.4952 256° West 338 389 10,500 -1,592 Descending FlightAware ADS-B
Thu 02:04:02 PM 30.1616 -94.5309 243° Southwest 321 369 10,000 -1,241 Descending FlightAware ADS-B
Thu 02:04:09 PM 30.1560 -94.5413 238° Southwest 314 361 9,900 -1,091 Descending FlightAware ADS-B
Thu 02:04:13 PM 30.1529 -94.5465 235° Southwest 312 359 9,800 -1,714 Descending FlightAware ADS-B
Thu 02:04:44 PM 30.1272 -94.5862 233° Southwest 302 348 8,900 -1,826 Descending FlightAware ADS-B
Thu 02:04:59 PM 30.1144 -94.6059 233° Southwest 299 344 8,400 -1,468 Descending FlightAware ADS-B
Thu 02:06:18 PM 30.0505 -94.7045 234° Southwest 286 329 6,600 -1,404 Descending FlightAware ADS-B
Thu 02:06:33 PM 30.0385 -94.7233 234° Southwest 284 327 6,200 -1,400 Descending FlightAware ADS-B
Thu 02:06:48 PM 30.0267 -94.7419 234° Southwest 282 325 5,900 -1,258 Descending FlightAware ADS-B
Thu 02:07:35 PM 29.9910 -94.7972 233° Southwest 274 315 4,900 -1,385 Descending FlightAware ADS-B
Thu 02:07:40 PM 29.9872 -94.8032 234° Southwest 272 313 4,700 -2,000 Descending FlightAware ADS-B
Thu 02:07:44 PM 29.9848 -94.8081 241° Southwest 271 312 4,600 -1,500 Descending FlightAware ADS-B
Thu 02:07:48 PM 29.9827 -94.8143 249° West 268 308 4,500 -750 Descending FlightAware ADS-B
Thu 02:07:52 PM 29.9816 -94.8192 255° West 265 305 4,500 -667 Level FlightAware ADS-B
Thu 02:07:57 PM 29.9804 -94.8262 259° West 261 300 4,400 -1,200 Descending FlightAware ADS-B
Thu 02:08:02 PM 29.9796 -94.8324 262° West 257 296 4,300 -667 Descending FlightAware ADS-B
Thu 02:08:06 PM 29.9790 -94.8386 264° West 254 292 4,300 -750 Level FlightAware ADS-B
Thu 02:08:10 PM 29.9787 -94.8436 266° West 250 288 4,200 -800 Descending FlightAware ADS-B
Thu 02:08:21 PM 29.9780 -94.8586 267° West 244 281 4,100 -545 Descending FlightAware ADS-B
Thu 02:08:32 PM 29.9771 -94.8727 266° West 235 270 4,000 -600 Descending FlightAware ADS-B
Thu 02:08:41 PM 29.9767 -94.8831 267° West 231 266 3,900 -857 Descending FlightAware ADS-B
Thu 02:09:14 PM 29.9770 -94.9225 271° West 223 257 3,400 -1,000 Descending FlightAware ADS-B
Thu 02:09:29 PM 29.9773 -94.9412 271° West 224 258 3,100 -1,059 Descending FlightAware ADS-B
Thu 02:09:48 PM 29.9774 -94.9639 269° West 226 260 2,800 -1,034 Descending FlightAware ADS-B
Thu 02:10:27 PM 29.9775 -95.0102 271° West 221 254 2,100 -1,091 Descending FlightAware ADS-B
Thu 02:10:32 PM 29.9774 -95.0160 269° West 222 255 2,000 -429 Descending FlightAware ADS-B
Thu 02:10:55 PM 29.9775 -95.0434 271° West 215 247 1,900 -130 Descending FlightAware ADS-B
Thu 02:11:18 PM 29.9775 -95.0687 270° West 215 247 1,900  Level FlightAware ADS-B
Thu 02:11:28 PM 29.9774 -95.0803 269° West 217 250 1,900  Level FlightAware ADS-B
Thu 02:11:40 PM 29.9774 -95.0938 270° West 214 246 1,900  Level FlightAware ADS-B
Thu 02:11:53 PM 29.9776 -95.1094 271° West 212 244 1,900  Level FlightAware ADS-B
Thu 02:12:26 PM 29.9775 -95.1464 270° West 211 243 1,900  Level FlightAware ADS-B
Thu 02:12:35 PM 29.9776 -95.1565 271° West 214 246 1,900  Level FlightAware ADS-B
Thu 02:12:43 PM 29.9776 -95.1657 270° West 215 247 1,900 316 Level FlightAware ADS-B
Thu 02:12:54 PM 29.9776 -95.1782 270° West 204 235 2,000  Climbing FlightAware ADS-B
Thu 02:13:07 PM 29.9776 -95.1913 270° West 187 215 1,900 -923 Descending FlightAware ADS-B
Thu 02:13:20 PM 29.9776 -95.2036 270° West 178 205 1,600 -1,091 Descending FlightAware ADS-B
Thu 02:13:40 PM 29.9776 -95.2218 270° West 164 189 1,300 -789 Descending FlightAware ADS-B
Thu 02:13:58 PM 29.9776 -95.2367 270° West 151 174 1,100 -800 Descending FlightAware ADS-B
Thu 02:14:10 PM 29.9777 -95.2462 271° West 151 174 900 -857 Descending FlightAware ADS-B
Thu 02:14:19 PM 29.9777 -95.2533 270° West 153 176 800 -900 Descending FlightAware ADS-B
Thu 02:14:30 PM 29.9776 -95.2625 269° West 153 176 600 -947 Descending FlightAware ADS-B
Thu 02:14:38 PM 29.9777 -95.2690 271° West 157 181 500 -400 Descending FlightAware ADS-B
Thu 02:14:45 PM 29.9776 -95.2749 269° West 152 175 500 -600 Level FlightAware ADS-B
Thu 02:14:48 PM 29.9776 -95.2774 270° West 150 173 400 -1,333 Descending FlightAware ADS-B
Thu 02:14:54 PM 29.9777 -95.2821 271° West 151 174 300 -522 Descending FlightAware ADS-B
Thu 02:15:11 PM 29.9776 -95.2957 270° West 151 174 200 -545 Descending FlightAware ADS-B
Thu 02:15:16 PM 29.9777 -95.2998 272° West 152 175 100 -1,200 Descending FlightAware ADS-B

Login

Don't have an account? Register now (free) for customized features, flight alerts, and more!